Time;durP1;ratioP1;P1;durP2;ratioP2;P2;SDS_P1;SDS_P2;PMS_P1;PMS_P2;Temp;Humidity;BMP_temperature;BMP_pressure;BME280_temperature;BME280_humidity;BME280_pressure;Samples;Min_cycle;Max_cycle;Signal;HPM_P1;HPM_P2
2022/10/27 00:00:58;;;;;;;9.77;3.63;;;;;;;42.76;33.19;101053.44;4825938;29;20453;-71
2022/10/27 00:03:23;;;;;;;9.50;4.10;;;;;;;42.77;32.93;101046.84;4839845;29;20854;-72
2022/10/27 00:05:49;;;;;;;7.63;4.00;;;;;;;42.62;33.07;101047.50;4840010;29;20426;-72
2022/10/27 00:08:17;;;;;;;9.07;4.00;;;;;;;42.55;32.99;101037.09;4827878;29;20207;-72
2022/10/27 00:10:44;;;;;;;6.83;5.07;;;;;;;42.52;33.58;101037.75;4827496;29;20581;-72
2022/10/27 00:13:12;;;;;;;7.90;4.43;;;;;;;42.55;33.53;101030.84;4827814;29;20808;-72
2022/10/27 00:15:38;;;;;;;11.20;4.60;;;;;;;42.49;33.32;101021.28;4842659;29;20948;-72
2022/10/27 00:18:10;;;;;;;9.70;4.43;;;;;;;42.31;33.82;101017.88;4842606;29;20527;-72
2022/10/27 00:20:37;;;;;;;11.23;5.20;;;;;;;42.30;33.80;101019.81;4827588;29;20227;-72
2022/10/27 00:23:03;;;;;;;13.13;4.90;;;;;;;42.31;33.45;101017.88;4826827;29;20548;-72
2022/10/27 00:25:29;;;;;;;12.23;4.33;;;;;;;42.46;33.62;101016.47;4843556;29;20891;-72
2022/10/27 00:27:55;;;;;;;12.63;4.97;;;;;;;42.61;33.29;101018.63;4843921;29;20446;-72
2022/10/27 00:30:21;;;;;;;9.53;4.80;;;;;;;42.62;33.03;101014.75;4812093;29;20959;-71
2022/10/27 00:32:47;;;;;;;11.10;6.00;;;;;;;42.62;33.41;101010.09;4842314;29;20180;-72
2022/10/27 00:35:12;;;;;;;11.70;5.27;;;;;;;42.24;33.59;100999.34;4844086;29;20194;-72
2022/10/27 00:37:38;;;;;;;11.07;4.93;;;;;;;42.18;33.53;101000.69;4843740;29;20176;-71
2022/10/27 00:40:05;;;;;;;11.83;6.47;;;;;;;42.19;33.59;100990.56;4811857;29;20492;-72
2022/10/27 00:42:31;;;;;;;7.40;4.43;;;;;;;42.38;33.59;100993.59;4842390;29;20207;-72
2022/10/27 00:44:57;;;;;;;15.90;7.63;;;;;;;42.53;33.06;100990.25;4842067;29;20485;-72
2022/10/27 00:47:31;;;;;;;13.30;5.10;;;;;;;42.58;33.10;100986.56;4843565;29;20204;-72
2022/10/27 00:50:00;;;;;;;11.57;4.77;;;;;;;42.74;33.33;100984.00;4843568;29;20164;-72
2022/10/27 00:52:31;;;;;;;16.53;5.00;;;;;;;42.71;33.38;100984.66;4841985;29;20436;-72
2022/10/27 00:55:01;;;;;;;11.80;5.90;;;;;;;42.58;33.30;100983.81;4841856;29;20539;-71
2022/10/27 00:57:30;;;;;;;16.37;5.27;;;;;;;42.18;33.87;100973.41;4811648;29;20821;-72
2022/10/27 00:59:58;;;;;;;10.87;5.30;;;;;;;42.40;33.71;100980.44;4811916;29;20596;-72
2022/10/27 01:02:24;;;;;;;13.43;5.40;;;;;;;42.35;33.77;100981.41;4843215;29;20467;-71
2022/10/27 01:05:00;;;;;;;8.83;5.20;;;;;;;42.41;33.47;100976.56;4841725;29;20460;-72
2022/10/27 01:07:27;;;;;;;11.17;4.70;;;;;;;42.23;33.97;100972.41;4826442;29;20441;-72
2022/10/27 01:09:53;;;;;;;14.77;6.23;;;;;;;41.84;34.86;100974.44;4843116;29;20429;-72
2022/10/27 01:12:19;;;;;;;12.27;7.60;;;;;;;41.80;34.75;100970.75;4826431;29;20513;-71
2022/10/27 01:14:46;;;;;;;12.47;7.03;;;;;;;42.09;34.57;100973.44;4841727;29;20922;-71
2022/10/27 01:17:23;;;;;;;18.37;10.40;;;;;;;42.18;34.70;100975.34;4841564;29;20661;-71
2022/10/27 01:20:44;;;;;;;20.43;12.93;;;;;;;41.98;35.26;100963.25;4841482;29;20460;-71
2022/10/27 01:23:28;;;;;;;23.27;17.50;;;;;;;41.92;35.13;100978.22;4811262;29;20555;-72
2022/10/27 01:26:23;;;;;;;28.90;15.30;;;;;;;41.84;35.46;100969.78;4841532;29;20476;-72
2022/10/27 01:28:58;;;;;;;24.33;16.20;;;;;;;41.86;35.23;100974.88;4817042;29;20436;-72
2022/10/27 01:31:31;;;;;;;21.40;15.53;;;;;;;41.82;35.30;100971.25;4841364;29;20466;-71
2022/10/27 01:34:27;;;;;;;23.30;17.17;;;;;;;41.70;35.55;100969.22;4825461;29;20432;-72
2022/10/27 01:37:19;;;;;;;26.43;15.30;;;;;;;41.86;35.84;100964.78;4842567;29;20412;-74
2022/10/27 01:40:01;;;;;;;25.33;16.67;;;;;;;41.82;35.43;100955.69;4816970;29;20432;-74
2022/10/27 01:42:35;;;;;;;26.03;17.77;;;;;;;41.55;36.14;100956.16;4840954;29;21004;-74
2022/10/27 01:45:04;;;;;;;20.43;16.73;;;;;;;41.93;35.50;100958.00;4841116;29;20432;-72
2022/10/27 01:47:31;;;;;;;27.30;18.03;;;;;;;41.52;36.17;100951.38;4841055;29;20431;-72
2022/10/27 01:49:57;;;;;;;21.90;17.70;;;;;;;41.38;36.21;100959.78;4842545;29;20475;-72
2022/10/27 01:52:44;;;;;;;22.30;16.40;;;;;;;41.60;36.30;100953.25;4841021;29;20822;-72
2022/10/27 01:55:15;;;;;;;24.63;17.90;;;;;;;41.36;36.58;100953.06;4825903;29;20676;-72
2022/10/27 01:58:10;;;;;;;21.67;17.50;;;;;;;40.82;37.71;100958.94;4825920;29;20432;-72
2022/10/27 02:01:11;;;;;;;32.00;18.83;;;;;;;41.22;36.86;100950.53;4793629;29;20835;-72
2022/10/27 02:04:00;;;;;;;24.57;18.40;;;;;;;41.13;37.28;100963.34;4841100;29;21003;-72
2022/10/27 02:06:41;;;;;;;29.40;18.30;;;;;;;41.27;36.85;100945.72;4790574;29;20477;-72
2022/10/27 02:09:15;;;;;;;23.97;16.60;;;;;;;41.50;36.49;100950.91;4843450;29;20437;-72
2022/10/27 02:11:44;;;;;;;31.83;16.10;;;;;;;41.61;36.25;100952.09;4824110;29;20573;-72
2022/10/27 02:14:12;;;;;;;23.43;16.57;;;;;;;41.63;36.18;100960.75;4824367;29;20418;-72
2022/10/27 02:16:44;;;;;;;20.57;15.83;;;;;;;41.57;36.44;100953.91;4837471;29;20563;-72
2022/10/27 02:19:18;;;;;;;21.70;16.03;;;;;;;41.65;36.27;100960.44;4837666;29;20567;-72
2022/10/27 02:21:48;;;;;;;23.43;16.20;;;;;;;41.97;36.14;100961.69;4853096;29;21011;-73
2022/10/27 02:24:14;;;;;;;21.37;16.67;;;;;;;42.06;35.64;100952.31;4823870;29;20828;-72
2022/10/27 02:26:50;;;;;;;30.80;16.23;;;;;;;42.00;35.94;100955.56;4822875;29;20551;-72
2022/10/27 02:29:34;;;;;;;24.87;16.97;;;;;;;41.98;35.74;100958.59;4852948;29;20879;-72
2022/10/27 02:32:04;;;;;;;25.63;18.20;;;;;;;42.17;35.36;100958.16;4853015;29;20931;-74
2022/10/27 02:34:32;;;;;;;22.10;15.60;;;;;;;42.16;35.49;100959.31;4852823;29;20518;-75
2022/10/27 02:36:58;;;;;;;23.43;17.67;;;;;;;41.78;36.26;100959.41;4823887;29;20417;-74
2022/10/27 02:39:24;;;;;;;22.80;14.10;;;;;;;41.82;36.02;100968.53;4837508;29;22235;-72
2022/10/27 02:41:50;;;;;;;21.57;14.33;;;;;;;41.72;36.09;100960.69;4822181;29;20650;-72
2022/10/27 02:44:15;;;;;;;27.67;16.93;;;;;;;41.72;36.14;100961.50;4837828;29;20437;-72
2022/10/27 02:46:41;;;;;;;28.13;15.90;;;;;;;41.72;36.26;100964.22;4841197;29;20441;-72
2022/10/27 02:49:07;;;;;;;19.80;16.47;;;;;;;41.88;36.03;100969.13;4841055;29;20653;-72
2022/10/27 02:51:33;;;;;;;21.57;15.17;;;;;;;41.96;36.09;100966.31;4841374;29;20428;-72
2022/10/27 02:53:59;;;;;;;27.33;17.87;;;;;;;41.29;37.00;100962.50;4840909;29;20279;-71
2022/10/27 02:56:25;;;;;;;24.37;17.50;;;;;;;41.65;36.80;100961.22;4856827;29;20749;-72
2022/10/27 02:58:51;;;;;;;18.17;16.60;;;;;;;41.72;36.70;100960.69;4827203;29;20167;-73
2022/10/27 03:01:17;;;;;;;23.27;15.10;;;;;;;41.63;36.52;100958.03;4841325;29;20191;-72
2022/10/27 03:03:43;;;;;;;23.23;15.93;;;;;;;41.79;36.40;100959.06;4840852;29;20465;-72
2022/10/27 03:06:08;;;;;;;19.93;13.03;;;;;;;41.91;36.26;100958.34;4840797;29;20199;-73
2022/10/27 03:08:34;;;;;;;27.83;15.23;;;;;;;41.68;36.04;100960.56;4831366;29;20567;-73
2022/10/27 03:11:00;;;;;;;17.80;14.47;;;;;;;41.68;36.34;100957.84;4843711;29;20203;-73
2022/10/27 03:13:26;;;;;;;25.00;15.17;;;;;;;40.48;38.46;100962.53;4845083;29;20660;-72
2022/10/27 03:15:52;;;;;;;20.80;14.50;;;;;;;41.11;37.43;100958.25;4845364;29;20405;-72
2022/10/27 03:18:18;;;;;;;17.47;16.60;;;;;;;41.25;37.38;100964.31;4843695;29;20243;-71
2022/10/27 03:20:47;;;;;;;17.27;13.23;;;;;;;41.37;36.95;100960.88;4845071;29;20222;-72
2022/10/27 03:23:13;;;;;;;17.10;13.30;;;;;;;41.49;36.44;100965.63;4845107;29;20453;-72
2022/10/27 03:25:45;;;;;;;16.10;12.27;;;;;;;41.68;36.26;100959.75;4825264;29;20549;-72
2022/10/27 03:28:11;;;;;;;20.07;13.67;;;;;;;41.52;36.57;100962.25;4840482;29;20437;-72
2022/10/27 03:30:37;;;;;;;17.67;13.13;;;;;;;41.53;36.66;100961.94;4825068;29;20997;-71
2022/10/27 03:33:03;;;;;;;20.60;12.53;;;;;;;41.81;35.90;100964.22;4825143;29;20552;-72
2022/10/27 03:35:30;;;;;;;18.83;12.90;;;;;;;41.85;35.95;100960.47;4810092;29;20432;-72
2022/10/27 03:37:57;;;;;;;17.30;13.60;;;;;;;41.71;36.14;100959.91;4840235;29;20528;-72
2022/10/27 03:40:24;;;;;;;20.43;14.43;;;;;;;41.54;36.45;100960.00;4810102;29;20520;-72
2022/10/27 03:42:49;;;;;;;19.73;12.80;;;;;;;41.60;36.74;100975.03;4826329;29;20449;-72
2022/10/27 03:45:16;;;;;;;19.27;14.27;;;;;;;41.86;36.05;100964.00;4824901;29;20425;-72
2022/10/27 03:47:42;;;;;;;22.17;16.73;;;;;;;41.80;36.40;100959.88;4826382;29;20454;-72
2022/10/27 03:50:08;;;;;;;20.03;13.63;;;;;;;41.61;36.34;100957.56;4824652;29;20957;-72
2022/10/27 03:52:34;;;;;;;17.97;14.80;;;;;;;41.77;35.97;100955.88;4825011;29;20249;-72
2022/10/27 03:55:00;;;;;;;28.47;15.17;;;;;;;41.71;36.59;100967.28;4824580;29;20461;-72
2022/10/27 03:57:26;;;;;;;21.23;16.27;;;;;;;41.84;36.15;100963.53;4839311;29;20425;-72
2022/10/27 03:59:52;;;;;;;24.10;15.43;;;;;;;41.76;36.58;100954.28;4809535;29;20216;-72
2022/10/27 04:02:17;;;;;;;18.80;13.50;;;;;;;42.00;36.27;100948.19;4824397;29;20216;-71
2022/10/27 04:04:43;;;;;;;23.23;13.00;;;;;;;41.81;36.30;100945.94;4839884;29;20943;-72
2022/10/27 04:07:09;;;;;;;21.13;12.03;;;;;;;41.57;36.54;100951.19;4839740;29;20247;-72
2022/10/27 04:09:35;;;;;;;19.77;14.30;;;;;;;41.78;36.06;100957.47;4833542;29;20226;-72
2022/10/27 04:12:01;;;;;;;21.13;15.00;;;;;;;41.65;36.66;100960.44;4839760;29;20454;-72
2022/10/27 04:14:27;;;;;;;17.47;14.90;;;;;;;41.30;36.83;100961.38;4825742;29;20200;-72
2022/10/27 04:16:53;;;;;;;19.47;15.40;;;;;;;40.85;37.54;100958.31;4826083;29;20191;-72
2022/10/27 04:19:20;;;;;;;20.93;15.70;;;;;;;41.11;37.17;100955.53;4824474;29;20282;-72
2022/10/27 04:21:46;;;;;;;23.97;14.80;;;;;;;41.16;37.23;100952.63;4809179;29;20188;-72
2022/10/27 04:24:13;;;;;;;24.80;17.30;;;;;;;40.86;37.63;100953.66;4809071;29;21050;-72
2022/10/27 04:26:39;;;;;;;25.90;15.43;;;;;;;40.92;37.69;100960.56;4839277;29;20490;-72
2022/10/27 04:29:05;;;;;;;17.57;13.10;;;;;;;41.04;37.53;100964.19;4824235;29;20874;-72
2022/10/27 04:31:31;;;;;;;27.47;14.50;;;;;;;41.13;37.27;100966.91;4825499;29;21047;-72
2022/10/27 04:33:58;;;;;;;21.50;17.17;;;;;;;41.21;37.44;100973.44;4824040;29;20274;-72
2022/10/27 04:36:24;;;;;;;26.60;17.23;;;;;;;40.92;38.01;100982.31;4839340;29;20434;-72
2022/10/27 04:38:50;;;;;;;23.97;18.07;;;;;;;41.02;37.49;100982.78;4839216;29;20432;-72
2022/10/27 04:41:17;;;;;;;23.93;16.00;;;;;;;41.20;37.54;100986.25;4823995;29;20443;-71
2022/10/27 04:43:43;;;;;;;22.17;15.00;;;;;;;41.08;37.38;100991.56;4825489;29;20553;-72
2022/10/27 04:46:09;;;;;;;26.40;17.13;;;;;;;41.11;37.05;100993.63;4825072;29;20489;-72
2022/10/27 04:48:35;;;;;;;27.20;17.70;;;;;;;41.32;37.13;100991.00;4839134;29;20212;-72
2022/10/27 04:51:01;;;;;;;24.83;15.00;;;;;;;41.41;37.38;100999.16;4825249;29;20426;-72
2022/10/27 04:53:27;;;;;;;23.73;15.87;;;;;;;41.37;36.68;100998.19;4839355;29;20192;-72
2022/10/27 04:55:53;;;;;;;23.57;16.70;;;;;;;41.52;36.63;101005.84;4823794;29;20463;-72
2022/10/27 04:58:20;;;;;;;25.10;18.00;;;;;;;41.64;36.58;101003.22;4823701;29;20199;-72
2022/10/27 05:00:47;;;;;;;23.10;19.53;;;;;;;41.49;36.45;100996.38;4823783;29;20614;-73
2022/10/27 05:03:13;;;;;;;24.30;18.37;;;;;;;41.54;36.28;101007.09;4838716;29;20465;-72
2022/10/27 05:05:39;;;;;;;21.20;17.50;;;;;;;41.40;36.53;101008.44;4838817;29;20435;-72
2022/10/27 05:08:05;;;;;;;20.60;16.83;;;;;;;40.97;37.44;101007.44;4823800;29;20545;-73
2022/10/27 05:10:33;;;;;;;20.77;16.70;;;;;;;40.93;37.36;101011.91;4825609;29;20988;-72
2022/10/27 05:12:59;;;;;;;24.73;18.60;;;;;;;41.15;37.49;101013.63;4841756;29;20432;-72
2022/10/27 05:15:26;;;;;;;23.70;17.07;;;;;;;40.47;38.42;101015.28;4841480;29;20418;-72
2022/10/27 05:17:52;;;;;;;28.60;17.83;;;;;;;40.51;38.34;101027.13;4824469;29;20803;-72
2022/10/27 05:20:19;;;;;;;29.37;17.80;;;;;;;40.88;37.86;101030.31;4823691;29;20626;-72
2022/10/27 05:22:45;;;;;;;28.37;16.77;;;;;;;40.93;37.39;101041.84;4823036;29;20469;-72
2022/10/27 05:25:11;;;;;;;26.20;17.10;;;;;;;40.96;37.51;101035.78;4838331;29;20862;-72
2022/10/27 05:27:37;;;;;;;34.17;19.37;;;;;;;41.07;36.99;101033.53;4823204;29;20550;-70
2022/10/27 05:30:05;;;;;;;24.80;18.80;;;;;;;41.00;37.46;101042.16;4838591;29;20421;-71
2022/10/27 05:32:31;;;;;;;25.10;17.37;;;;;;;41.11;37.23;101037.16;4808042;29;20456;-72
2022/10/27 05:34:57;;;;;;;23.80;17.63;;;;;;;41.10;36.84;101040.22;4823325;29;20434;-71
2022/10/27 05:37:23;;;;;;;26.30;20.07;;;;;;;41.12;37.29;101041.50;4838242;29;20811;-71
2022/10/27 05:39:49;;;;;;;34.53;20.33;;;;;;;41.05;37.25;101035.75;4822525;29;20876;-75
2022/10/27 05:42:15;;;;;;;28.50;19.37;;;;;;;41.23;36.95;101048.19;4822688;29;20506;-71
2022/10/27 05:44:41;;;;;;;29.53;22.20;;;;;;;40.96;37.36;101046.66;4823158;29;20441;-72
2022/10/27 05:47:07;;;;;;;28.93;18.90;;;;;;;41.08;36.84;101046.00;4822877;29;20863;-71
2022/10/27 05:49:33;;;;;;;30.20;21.00;;;;;;;40.49;38.02;101048.41;4823079;29;20426;-72
2022/10/27 05:51:58;;;;;;;34.33;20.83;;;;;;;40.95;37.32;101053.22;4822954;29;20195;-72
2022/10/27 05:54:24;;;;;;;29.20;19.53;;;;;;;40.98;37.32;101049.84;4823040;29;20216;-72
2022/10/27 05:56:50;;;;;;;30.93;21.60;;;;;;;40.29;38.51;101057.97;4823119;29;20218;-72
2022/10/27 05:59:17;;;;;;;39.53;23.77;;;;;;;40.88;37.45;101062.94;4837719;29;20191;-72
2022/10/27 06:01:43;;;;;;;30.07;22.23;;;;;;;40.81;37.40;101058.00;4822246;29;20199;-71
2022/10/27 06:04:09;;;;;;;28.90;17.83;;;;;;;40.83;37.68;101072.09;4822098;29;20807;-71
2022/10/27 06:06:35;;;;;;;23.00;18.80;;;;;;;40.67;37.59;101069.06;4822218;29;20448;-72
2022/10/27 06:09:01;;;;;;;28.30;19.53;;;;;;;40.85;37.38;101071.75;4823471;29;20176;-72
2022/10/27 06:11:26;;;;;;;28.97;21.60;;;;;;;40.92;37.47;101083.78;4822450;29;20198;-71
2022/10/27 06:13:52;;;;;;;30.73;24.23;;;;;;;40.98;36.94;101073.53;4807643;29;20852;-72
2022/10/27 06:16:21;;;;;;;39.93;26.50;;;;;;;40.97;37.45;101082.81;4821983;29;20194;-71
2022/10/27 06:18:47;;;;;;;36.30;20.30;;;;;;;40.72;37.40;101087.13;4821870;29;20433;-68
2022/10/27 06:21:13;;;;;;;30.17;22.00;;;;;;;40.80;37.71;101089.84;4823185;29;20428;-71
2022/10/27 06:23:40;;;;;;;37.40;23.83;;;;;;;40.53;37.92;101084.75;4823872;29;20484;-72
2022/10/27 06:26:08;;;;;;;32.37;22.80;;;;;;;40.76;37.81;101088.06;4840137;29;20453;-72
2022/10/27 06:28:34;;;;;;;34.87;24.40;;;;;;;40.95;37.29;101095.97;4824992;29;20621;-71
2022/10/27 06:31:00;;;;;;;30.90;24.10;;;;;;;40.77;37.36;101098.66;4823455;29;20436;-72
2022/10/27 06:33:26;;;;;;;28.50;24.23;;;;;;;40.69;37.71;101110.31;4842091;29;20292;-71
2022/10/27 06:35:52;;;;;;;32.13;24.33;;;;;;;40.97;37.72;101112.75;4824656;29;20197;-74
2022/10/27 06:38:18;;;;;;;31.73;22.93;;;;;;;40.66;37.36;101116.41;4823710;29;20180;-75
2022/10/27 06:40:44;;;;;;;38.47;25.47;;;;;;;40.98;37.47;101123.31;4840060;29;20207;-73
2022/10/27 06:43:11;;;;;;;33.37;20.47;;;;;;;41.31;36.42;101115.44;4854981;29;20452;-72
2022/10/27 06:45:38;;;;;;;29.53;24.57;;;;;;;41.24;36.70;101115.09;4840239;29;20421;-74
2022/10/27 06:48:05;;;;;;;25.60;21.20;;;;;;;41.37;36.57;101124.22;4839700;29;20428;-71
2022/10/27 06:50:31;;;;;;;41.00;21.40;;;;;;;41.51;36.11;101121.34;4840783;29;20426;-74
2022/10/27 06:52:58;;;;;;;27.30;22.63;;;;;;;41.67;35.90;101127.03;4840116;29;20433;-74
2022/10/27 06:55:24;;;;;;;27.17;22.17;;;;;;;41.18;36.22;101110.94;4840164;29;20941;-76
2022/10/27 06:57:50;;;;;;;29.50;21.27;;;;;;;40.36;37.87;101122.75;4823629;29;20543;-76
2022/10/27 07:00:17;;;;;;;28.13;21.53;;;;;;;40.54;37.54;101122.47;4823758;29;20527;-75
2022/10/27 07:02:42;;;;;;;31.43;24.60;;;;;;;41.11;36.90;101121.53;4823784;29;20210;-74
2022/10/27 07:05:09;;;;;;;35.27;21.37;;;;;;;41.42;36.60;101121.34;4823832;29;20437;-74
2022/10/27 07:07:35;;;;;;;31.40;23.13;;;;;;;41.50;36.11;101114.28;4824473;29;20187;-76
2022/10/27 07:10:03;;;;;;;30.17;22.20;;;;;;;40.79;37.10;101123.59;4852277;29;21049;-77
2022/10/27 07:12:29;;;;;;;23.87;19.17;;;;;;;41.27;36.27;101114.47;4841063;29;20425;-76
2022/10/27 07:14:55;;;;;;;28.27;19.97;;;;;;;41.52;36.38;101109.31;4808574;29;20457;-72
2022/10/27 07:17:21;;;;;;;25.33;19.63;;;;;;;41.69;36.00;101113.91;4824798;29;20429;-76
2022/10/27 07:19:47;;;;;;;24.70;18.47;;;;;;;41.77;35.61;101107.66;4824844;29;20476;-76
2022/10/27 07:22:13;;;;;;;29.70;18.47;;;;;;;41.87;35.38;101110.00;4824143;29;20468;-75
2022/10/27 07:24:39;;;;;;;24.03;18.87;;;;;;;41.92;35.31;101114.44;4824743;29;20489;-76
2022/10/27 07:27:04;;;;;;;26.83;16.63;;;;;;;41.82;35.61;101118.38;4809803;29;20720;-76
2022/10/27 07:29:30;;;;;;;21.10;16.20;;;;;;;42.04;35.33;101130.91;4825440;29;20176;-76
2022/10/27 07:31:57;;;;;;;26.17;17.93;;;;;;;41.59;35.86;101142.28;4826106;29;20709;-75
2022/10/27 07:34:23;;;;;;;25.00;18.10;;;;;;;41.36;35.85;101149.06;4812724;29;20712;-75
2022/10/27 07:36:49;;;;;;;26.27;16.87;;;;;;;41.49;36.05;101145.34;4843787;29;20467;-72
2022/10/27 07:39:15;;;;;;;35.07;20.63;;;;;;;41.54;35.97;101156.88;4812351;29;20436;-72
2022/10/27 07:41:40;;;;;;;23.07;17.87;;;;;;;41.65;35.64;101156.53;4797830;29;20442;-72
2022/10/27 07:44:06;;;;;;;25.80;18.43;;;;;;;41.31;36.62;101159.00;4844597;29;20683;-76
2022/10/27 07:46:32;;;;;;;24.43;18.73;;;;;;;41.47;36.56;101156.56;4846772;29;20176;-72
2022/10/27 07:48:58;;;;;;;25.83;17.47;;;;;;;40.81;37.37;101164.88;4842583;29;20503;-72
2022/10/27 07:51:27;;;;;;;19.83;12.37;;;;;;;41.31;37.20;101163.59;4844580;29;20172;-72
2022/10/27 07:53:53;;;;;;;16.47;11.30;;;;;;;41.53;36.69;101173.53;4843095;29;20266;-71
2022/10/27 07:56:19;;;;;;;15.50;11.17;;;;;;;41.10;37.01;101174.38;4827498;29;20547;-71
2022/10/27 07:58:48;;;;;;;16.60;14.23;;;;;;;41.54;36.45;101177.84;4842474;29;20323;-71
2022/10/27 08:01:14;;;;;;;22.63;14.30;;;;;;;41.21;37.06;101163.97;4843525;29;20424;-72
2022/10/27 08:03:40;;;;;;;28.40;14.03;;;;;;;41.79;36.12;101176.22;4842255;29;20494;-72
2022/10/27 08:06:06;;;;;;;24.07;13.87;;;;;;;41.93;35.95;101174.09;4840888;29;20957;-72
2022/10/27 08:08:32;;;;;;;22.47;15.10;;;;;;;42.27;35.22;101172.34;4842720;29;20263;-71
2022/10/27 08:10:58;;;;;;;17.10;11.60;;;;;;;41.64;36.30;101182.16;4842492;29;20435;-71
2022/10/27 08:13:24;;;;;;;19.27;14.43;;;;;;;42.03;35.93;101178.38;4827196;29;20496;-72
2022/10/27 08:15:50;;;;;;;15.00;10.70;;;;;;;42.35;35.33;101180.47;4844853;29;20187;-72
2022/10/27 08:18:16;;;;;;;14.67;10.50;;;;;;;42.61;34.91;101185.00;4830203;29;20925;-72
2022/10/27 08:20:45;;;;;;;20.07;11.27;;;;;;;42.73;34.84;101185.09;4845893;29;20447;-73
2022/10/27 08:23:14;;;;;;;12.63;10.73;;;;;;;42.80;34.66;101179.91;4845498;29;20467;-71
2022/10/27 08:25:40;;;;;;;22.23;9.97;;;;;;;42.76;34.40;101183.63;4845497;29;20498;-71
2022/10/27 08:28:06;;;;;;;35.40;13.17;;;;;;;42.83;34.39;101176.47;4860848;29;20964;-71
2022/10/27 08:30:33;;;;;;;19.10;11.67;;;;;;;42.83;34.27;101181.94;4862436;29;20430;-72
2022/10/27 08:33:01;;;;;;;20.43;13.03;;;;;;;42.82;34.35;101176.81;4860758;29;20431;-72
2022/10/27 08:35:28;;;;;;;20.30;13.40;;;;;;;43.01;34.18;101181.84;4860822;29;20420;-70
2022/10/27 08:38:04;;;;;;;17.30;13.57;;;;;;;42.97;34.39;101180.88;4862258;29;20450;-71
2022/10/27 08:41:05;;;;;;;17.70;10.60;;;;;;;43.03;33.86;101177.66;4830309;29;20442;-71
2022/10/27 08:44:05;;;;;;;20.27;10.83;;;;;;;43.08;34.20;101171.16;4860268;29;20467;-71
2022/10/27 08:46:40;;;;;;;18.67;9.67;;;;;;;42.92;34.39;101173.69;4860632;29;20432;-70
2022/10/27 08:49:18;;;;;;;18.63;9.77;;;;;;;43.06;34.28;101168.78;4860528;29;20443;-69
2022/10/27 08:51:47;;;;;;;13.20;8.80;;;;;;;43.05;34.22;101169.13;4862017;29;20420;-70
2022/10/27 08:54:13;;;;;;;11.33;7.60;;;;;;;43.03;34.00;101171.38;4862012;29;20408;-68
2022/10/27 08:56:40;;;;;;;14.30;9.67;;;;;;;42.77;34.57;101172.34;4860486;29;20447;-71
2022/10/27 08:59:14;;;;;;;12.67;9.33;;;;;;;42.90;34.41;101165.03;4845188;29;20436;-72
2022/10/27 09:02:04;;;;;;;12.23;7.43;;;;;;;43.04;34.07;101168.34;4829617;29;20871;-70
2022/10/27 09:05:07;;;;;;;11.57;7.97;;;;;;;42.93;34.25;101167.09;4844868;29;20431;-70
2022/10/27 09:07:47;;;;;;;15.07;7.40;;;;;;;42.77;34.53;101158.72;4829191;29;20571;-70
2022/10/27 09:10:34;;;;;;;17.30;8.73;;;;;;;42.92;34.30;101166.31;4861442;29;20416;-69
2022/10/27 09:13:07;;;;;;;23.40;8.37;;;;;;;42.74;34.48;101153.94;4860131;29;20940;-68
2022/10/27 09:15:46;;;;;;;11.83;6.50;;;;;;;42.95;34.44;101158.56;4860086;29;20420;-68
2022/10/27 09:18:27;;;;;;;11.97;6.83;;;;;;;42.78;34.47;101148.59;4844685;29;20428;-67
2022/10/27 09:20:59;;;;;;;15.53;8.27;;;;;;;42.91;34.34;101158.47;4859877;29;20420;-69
2022/10/27 09:23:53;;;;;;;9.80;7.00;;;;;;;42.93;34.31;101164.38;4844258;29;20473;-70
2022/10/27 09:26:26;;;;;;;11.13;8.10;;;;;;;42.96;34.16;101160.16;4844606;29;20447;-69
2022/10/27 09:28:53;;;;;;;12.97;7.33;;;;;;;42.92;34.51;101158.13;4861349;29;20784;-69
2022/10/27 09:31:40;;;;;;;10.50;6.90;;;;;;;42.86;34.38;101145.81;4859780;29;20427;-69
2022/10/27 09:34:15;;;;;;;25.47;8.23;;;;;;;42.76;34.70;101146.22;4829098;29;20423;-69
2022/10/27 09:36:41;;;;;;;13.40;7.30;;;;;;;42.94;34.11;101149.59;4845378;29;20411;-69
2022/10/27 09:39:08;;;;;;;12.30;6.60;;;;;;;43.08;34.40;101141.94;4844301;29;20423;-69
2022/10/27 09:41:34;;;;;;;12.97;8.57;;;;;;;43.15;33.88;101142.19;4829546;29;20456;-69
2022/10/27 09:44:03;;;;;;;15.40;8.00;;;;;;;42.83;34.42;101141.00;4829241;29;20554;-69
2022/10/27 09:46:31;;;;;;;14.90;7.77;;;;;;;43.04;34.42;101145.69;4861066;29;20404;-69
2022/10/27 09:49:05;;;;;;;13.90;7.43;;;;;;;42.75;34.74;101139.16;4859403;29;20446;-69
2022/10/27 09:51:47;;;;;;;9.97;6.53;;;;;;;42.93;34.35;101134.34;4859459;29;20559;-69
2022/10/27 09:54:32;;;;;;;9.30;5.80;;;;;;;43.06;34.23;101143.41;4828491;29;20484;-69
2022/10/27 09:57:19;;;;;;;12.90;7.27;;;;;;;42.97;34.30;101126.28;4859352;29;21114;-69
2022/10/27 09:59:58;;;;;;;9.63;5.93;;;;;;;43.03;34.37;101128.53;4861081;29;20400;-70
2022/10/27 10:02:28;;;;;;;11.00;6.00;;;;;;;43.00;33.99;101131.13;4829260;29;20495;-69
2022/10/27 10:04:54;;;;;;;14.80;6.80;;;;;;;42.98;34.17;101123.28;4843969;29;20463;-69
2022/10/27 10:07:39;;;;;;;10.33;6.30;;;;;;;42.93;33.96;101126.16;4860851;29;20444;-70
2022/10/27 10:10:28;;;;;;;11.50;7.23;;;;;;;43.11;34.17;101121.38;4828730;29;20945;-69
2022/10/27 10:13:05;;;;;;;13.20;7.33;;;;;;;43.05;34.26;101120.00;4843828;29;20530;-69
2022/10/27 10:15:37;;;;;;;13.53;8.70;;;;;;;43.15;33.77;101112.16;4857431;29;20435;-69
2022/10/27 10:18:14;;;;;;;11.67;6.83;;;;;;;43.28;34.00;101113.00;4828760;29;20439;-69
2022/10/27 10:20:42;;;;;;;13.77;7.10;;;;;;;43.37;34.03;101123.84;4828722;29;20431;-70
2022/10/27 10:23:23;;;;;;;12.57;6.80;;;;;;;43.05;34.02;101118.06;4828595;29;21011;-69
2022/10/27 10:25:54;;;;;;;11.00;7.37;;;;;;;43.27;33.98;101116.84;4799975;29;20902;-69
2022/10/27 10:28:41;;;;;;;12.47;8.30;;;;;;;43.23;33.90;101115.94;4826186;29;20796;-69
2022/10/27 10:31:22;;;;;;;11.20;7.40;;;;;;;43.15;33.84;101116.81;4841966;29;20436;-69
2022/10/27 10:33:48;;;;;;;17.27;7.40;;;;;;;43.13;33.94;101110.91;4825473;29;20512;-69
2022/10/27 10:36:17;;;;;;;12.17;8.07;;;;;;;43.26;33.60;101114.47;4825340;29;20436;-70
2022/10/27 10:38:49;;;;;;;12.03;8.13;;;;;;;43.21;34.00;101099.09;4840570;29;20566;-70
2022/10/27 10:41:17;;;;;;;17.57;8.77;;;;;;;43.16;34.11;101099.34;4825313;29;20431;-70
2022/10/27 10:43:43;;;;;;;10.00;7.33;;;;;;;43.48;33.95;101086.78;4825366;29;20849;-70
2022/10/27 10:46:21;;;;;;;13.30;9.33;;;;;;;43.11;34.22;101096.81;4825367;29;20432;-68
2022/10/27 10:48:56;;;;;;;13.93;8.20;;;;;;;43.28;33.81;101090.34;4811041;29;20460;-69
2022/10/27 10:51:31;;;;;;;15.77;7.63;;;;;;;43.00;34.45;101090.97;4822123;29;20444;-69
2022/10/27 10:54:14;;;;;;;15.57;8.80;;;;;;;43.22;34.01;101084.31;4807081;29;20516;-71
2022/10/27 10:56:40;;;;;;;13.30;7.63;;;;;;;42.76;34.85;101085.38;4822137;29;20465;-71
2022/10/27 10:59:14;;;;;;;14.27;8.47;;;;;;;43.26;34.13;101087.97;4823440;29;20418;-70
2022/10/27 11:01:57;;;;;;;8.63;7.00;;;;;;;43.28;33.99;101077.50;4821919;29;20429;-72
2022/10/27 11:04:26;;;;;;;20.70;6.90;;;;;;;43.21;33.67;101076.47;4823742;29;20410;-70
2022/10/27 11:07:06;;;;;;;10.80;8.03;;;;;;;43.34;33.65;101073.44;4809598;29;20555;-70
2022/10/27 11:10:01;;;;;;;12.27;7.43;;;;;;;43.40;33.79;101071.28;4842893;29;20444;-70
2022/10/27 11:12:31;;;;;;;13.57;8.47;;;;;;;43.56;33.65;101061.28;4822073;29;20954;-70
2022/10/27 11:15:02;;;;;;;12.50;7.77;;;;;;;43.41;33.69;101060.03;4826844;29;20911;-69
2022/10/27 11:17:32;;;;;;;13.47;8.57;;;;;;;43.44;34.18;101055.81;4840687;29;20487;-70
2022/10/27 11:20:00;;;;;;;17.60;7.57;;;;;;;43.35;33.73;101053.16;4850578;29;20481;-72
2022/10/27 11:22:27;;;;;;;11.17;8.70;;;;;;;43.28;34.22;101052.94;4862292;29;20508;-70
2022/10/27 11:25:01;;;;;;;11.13;8.90;;;;;;;43.56;33.43;101044.91;4858910;29;20504;-70